createdAt,value
2022-12-31T00:01:39.802Z,8.06
2022-12-31T00:04:12.457Z,7.96
2022-12-31T00:06:46.153Z,8.03
2022-12-31T00:09:15.045Z,8.11
2022-12-31T00:11:45.782Z,8.00
2022-12-31T00:14:14.789Z,7.99
2022-12-31T00:16:46.704Z,7.99
2022-12-31T00:19:15.277Z,8.00
2022-12-31T00:21:45.226Z,8.10
2022-12-31T00:24:13.698Z,8.09
2022-12-31T00:26:44.377Z,8.06
2022-12-31T00:29:12.956Z,8.09
2022-12-31T00:31:41.500Z,8.10
2022-12-31T00:34:10.888Z,8.15
2022-12-31T00:36:42.547Z,8.26
2022-12-31T00:39:12.036Z,8.23
2022-12-31T00:41:40.816Z,8.18
2022-12-31T00:44:12.599Z,8.22
2022-12-31T00:49:08.857Z,8.33
2022-12-31T00:51:37.445Z,8.34
2022-12-31T00:54:07.230Z,8.35
2022-12-31T00:56:37.764Z,8.49
2022-12-31T00:59:06.808Z,8.38
2022-12-31T01:01:41.094Z,8.36
2022-12-31T01:04:14.345Z,8.35
2022-12-31T01:06:44.583Z,8.48
2022-12-31T01:09:19.004Z,8.46
2022-12-31T01:11:50.833Z,8.28
2022-12-31T01:14:21.012Z,8.32
2022-12-31T01:16:53.874Z,8.33
2022-12-31T01:19:25.158Z,8.27
2022-12-31T01:21:54.518Z,8.39
2022-12-31T01:24:23.815Z,8.41
2022-12-31T01:26:52.884Z,8.44
2022-12-31T01:29:21.493Z,8.62
2022-12-31T01:31:51.559Z,8.63
2022-12-31T01:34:20.210Z,8.68
2022-12-31T01:36:48.746Z,8.71
2022-12-31T01:39:17.252Z,8.56
2022-12-31T01:41:48.503Z,8.60
2022-12-31T01:44:54.204Z,8.62
2022-12-31T01:47:37.543Z,8.49
2022-12-31T01:50:15.263Z,8.51
2022-12-31T01:52:51.035Z,8.57
2022-12-31T01:55:25.281Z,8.49
2022-12-31T01:57:58.963Z,8.48
2022-12-31T02:00:28.178Z,8.52
2022-12-31T02:02:58.306Z,8.41
2022-12-31T02:05:35.230Z,8.18
2022-12-31T02:08:05.397Z,8.36
2022-12-31T02:10:34.591Z,8.32
2022-12-31T02:13:03.639Z,8.37
2022-12-31T02:15:47.146Z,8.41
2022-12-31T02:18:30.336Z,8.32
2022-12-31T02:21:31.320Z,8.28
2022-12-31T02:24:47.119Z,8.19
2022-12-31T02:27:34.889Z,8.18
2022-12-31T02:30:14.020Z,8.19
2022-12-31T02:33:09.078Z,8.34
2022-12-31T02:35:50.610Z,8.45
2022-12-31T02:38:25.765Z,8.47
2022-12-31T02:40:55.540Z,8.53
2022-12-31T02:43:24.981Z,8.54
2022-12-31T02:46:14.668Z,8.64
2022-12-31T02:48:53.605Z,8.67
2022-12-31T02:51:42.527Z,8.73
2022-12-31T02:54:33.824Z,8.78
2022-12-31T02:57:13.638Z,8.78
2022-12-31T03:00:10.492Z,8.79
2022-12-31T03:02:45.015Z,8.86
2022-12-31T03:05:17.440Z,8.96
2022-12-31T03:07:47.504Z,8.95
2022-12-31T03:10:16.433Z,9.08
2022-12-31T03:12:48.431Z,9.08
2022-12-31T03:15:23.334Z,9.14
2022-12-31T03:18:02.235Z,9.06
2022-12-31T03:20:52.549Z,9.04
2022-12-31T03:23:29.321Z,9.08
2022-12-31T03:25:58.690Z,9.16
2022-12-31T03:28:30.099Z,9.16
2022-12-31T03:31:01.918Z,9.14
2022-12-31T03:33:37.767Z,9.19
2022-12-31T03:36:09.586Z,9.26
2022-12-31T03:38:38.716Z,9.24
2022-12-31T03:41:07.707Z,9.21
2022-12-31T03:43:36.337Z,9.26
2022-12-31T03:46:05.134Z,9.18
2022-12-31T03:48:34.997Z,9.13
2022-12-31T03:51:06.665Z,9.20
2022-12-31T03:53:35.701Z,9.23
2022-12-31T03:56:06.700Z,9.29
2022-12-31T03:58:35.398Z,9.23
2022-12-31T04:01:03.866Z,9.16
2022-12-31T04:03:33.814Z,9.08
2022-12-31T04:06:02.619Z,9.08
2022-12-31T04:08:31.064Z,9.04
2022-12-31T04:10:59.564Z,8.96
2022-12-31T04:13:29.717Z,8.97
2022-12-31T04:15:58.787Z,8.91
2022-12-31T04:18:27.404Z,8.93
2022-12-31T04:21:03.339Z,8.79
2022-12-31T04:23:32.641Z,8.74
2022-12-31T04:26:01.259Z,8.66
2022-12-31T04:28:29.731Z,8.67
2022-12-31T04:30:59.796Z,8.67
2022-12-31T04:33:28.362Z,8.62
2022-12-31T04:36:03.758Z,8.71
2022-12-31T04:38:33.214Z,8.63
2022-12-31T04:41:20.938Z,8.65
2022-12-31T04:43:53.164Z,8.64
2022-12-31T04:46:24.598Z,8.70
2022-12-31T04:48:53.380Z,8.75
2022-12-31T04:51:24.961Z,8.80
2022-12-31T04:53:54.720Z,8.95
2022-12-31T04:56:23.572Z,9.11
2022-12-31T04:58:52.790Z,9.23
2022-12-31T05:01:22.211Z,9.24
2022-12-31T05:03:51.373Z,9.34
2022-12-31T05:06:23.959Z,9.42
2022-12-31T05:08:52.481Z,9.50
2022-12-31T05:11:21.535Z,9.57
2022-12-31T05:13:50.021Z,9.65
2022-12-31T05:16:18.524Z,9.69
2022-12-31T05:18:47.104Z,9.74
2022-12-31T05:21:22.783Z,9.82
2022-12-31T05:23:51.472Z,9.77
2022-12-31T05:26:19.963Z,9.78
2022-12-31T05:28:48.839Z,9.83
2022-12-31T05:31:17.329Z,9.83
2022-12-31T05:33:46.200Z,9.78
2022-12-31T05:36:15.295Z,9.73
2022-12-31T05:38:46.420Z,9.77
2022-12-31T05:41:14.999Z,9.75
2022-12-31T05:43:43.506Z,9.72
2022-12-31T05:46:12.364Z,9.65
2022-12-31T05:48:41.239Z,9.44
2022-12-31T05:51:09.713Z,9.37
2022-12-31T05:53:38.320Z,9.30
2022-12-31T05:56:08.399Z,9.39
2022-12-31T05:58:37.813Z,9.42
2022-12-31T06:01:06.863Z,9.47
2022-12-31T06:03:35.478Z,9.55
2022-12-31T06:06:04.366Z,9.71
2022-12-31T06:08:33.435Z,9.74
2022-12-31T06:11:02.192Z,9.70
2022-12-31T06:13:32.237Z,9.74
2022-12-31T06:16:07.169Z,9.67
2022-12-31T06:18:35.765Z,9.71
2022-12-31T06:21:05.451Z,9.65
2022-12-31T06:23:34.045Z,9.69
2022-12-31T06:26:03.612Z,9.72
2022-12-31T06:28:33.541Z,9.72
2022-12-31T06:31:03.395Z,9.72
2022-12-31T06:33:32.605Z,9.74
2022-12-31T06:36:05.383Z,9.76
2022-12-31T06:38:38.667Z,9.68
2022-12-31T06:41:10.166Z,9.60
2022-12-31T06:43:41.709Z,9.41
2022-12-31T06:46:12.880Z,9.39
2022-12-31T06:48:43.058Z,9.40
2022-12-31T06:51:17.258Z,9.36
2022-12-31T06:53:48.314Z,9.31
2022-12-31T06:56:20.774Z,9.32
2022-12-31T06:58:52.210Z,9.33
2022-12-31T07:01:44.339Z,9.33
2022-12-31T07:05:12.582Z,9.25
2022-12-31T07:07:56.323Z,9.24
2022-12-31T07:10:40.726Z,9.21
2022-12-31T07:13:43.207Z,9.13
2022-12-31T07:16:32.930Z,9.16
2022-12-31T07:19:19.488Z,9.16
2022-12-31T07:21:54.402Z,9.15
2022-12-31T07:24:23.986Z,9.18
2022-12-31T07:27:27.347Z,9.25
2022-12-31T07:30:06.177Z,9.41
2022-12-31T07:33:04.093Z,9.57
2022-12-31T07:35:48.647Z,9.60
2022-12-31T07:38:30.663Z,9.64
2022-12-31T07:41:13.628Z,9.78
2022-12-31T07:43:57.438Z,9.73
2022-12-31T07:46:37.130Z,9.74
2022-12-31T07:49:12.120Z,9.84
2022-12-31T07:51:43.552Z,9.89
2022-12-31T07:54:17.881Z,9.76
2022-12-31T07:56:48.074Z,9.85
2022-12-31T08:00:03.423Z,9.88
2022-12-31T08:03:10.489Z,9.90
2022-12-31T08:05:53.394Z,9.97
2022-12-31T08:08:43.216Z,10.06
2022-12-31T08:11:27.006Z,10.13
2022-12-31T08:13:57.281Z,10.26
2022-12-31T08:16:29.853Z,10.39
2022-12-31T08:18:59.106Z,10.41
2022-12-31T08:21:45.327Z,10.34
2022-12-31T08:30:03.946Z,10.37
2022-12-31T08:32:42.195Z,10.41
2022-12-31T08:35:29.374Z,10.43
2022-12-31T08:38:10.836Z,10.48
2022-12-31T08:40:55.343Z,10.44
2022-12-31T08:43:40.576Z,10.59
2022-12-31T08:46:21.620Z,10.80
2022-12-31T08:48:50.788Z,11.00
2022-12-31T08:51:23.542Z,11.17
2022-12-31T08:53:55.312Z,11.37
2022-12-31T08:56:33.791Z,11.61
2022-12-31T08:59:27.529Z,11.91
2022-12-31T09:02:30.632Z,12.03
2022-12-31T09:05:17.516Z,12.08
2022-12-31T09:08:11.836Z,12.21
2022-12-31T09:10:51.717Z,11.98
2022-12-31T09:13:38.089Z,12.19
2022-12-31T09:16:18.772Z,12.32
2022-12-31T09:18:47.905Z,12.45
2022-12-31T09:21:17.774Z,12.61
2022-12-31T09:23:47.219Z,12.69
2022-12-31T09:26:42.435Z,12.57
2022-12-31T09:29:24.228Z,12.62
2022-12-31T09:32:05.931Z,12.71
2022-12-31T09:34:47.933Z,12.46
2022-12-31T09:37:30.341Z,12.57
2022-12-31T09:40:11.837Z,12.73
2022-12-31T09:46:19.982Z,13.40
2022-12-31T09:49:40.770Z,13.57
2022-12-31T09:52:27.534Z,13.68
2022-12-31T09:55:23.325Z,13.61
2022-12-31T09:58:13.959Z,13.79
2022-12-31T10:00:53.364Z,13.94
2022-12-31T10:03:54.659Z,14.06
2022-12-31T10:06:32.207Z,14.36
2022-12-31T10:09:29.414Z,14.46
2022-12-31T10:12:26.132Z,14.50
2022-12-31T10:15:45.092Z,14.65
2022-12-31T10:18:37.822Z,14.89
2022-12-31T10:21:33.621Z,15.01
2022-12-31T10:24:46.477Z,15.02
2022-12-31T10:27:39.011Z,15.25
2022-12-31T10:30:18.443Z,15.36
2022-12-31T10:33:07.775Z,15.40
2022-12-31T10:35:51.747Z,15.38
2022-12-31T10:38:34.739Z,15.31
2022-12-31T10:42:00.840Z,15.26
2022-12-31T10:45:06.052Z,15.17
2022-12-31T10:48:20.047Z,15.28
2022-12-31T10:51:44.218Z,15.39
2022-12-31T10:54:39.408Z,15.48
2022-12-31T10:57:48.935Z,15.58
2022-12-31T11:00:21.282Z,15.62
2022-12-31T11:03:53.202Z,15.68
2022-12-31T11:07:22.148Z,15.78
2022-12-31T11:10:42.581Z,15.80
2022-12-31T11:13:42.568Z,16.00
2022-12-31T11:16:57.453Z,16.25
2022-12-31T11:19:38.328Z,16.32
2022-12-31T11:22:49.578Z,16.46
2022-12-31T11:25:33.915Z,16.53
2022-12-31T11:28:37.670Z,16.42
2022-12-31T11:31:28.541Z,16.29
2022-12-31T11:34:18.433Z,16.21
2022-12-31T11:37:06.986Z,16.08
2022-12-31T11:39:53.922Z,15.92
2022-12-31T11:42:33.933Z,15.86
2022-12-31T11:45:15.829Z,15.66
2022-12-31T11:48:29.543Z,15.65
2022-12-31T11:51:11.478Z,15.60
2022-12-31T11:54:15.468Z,15.50
2022-12-31T11:56:54.827Z,15.55
2022-12-31T11:59:23.682Z,15.73
2022-12-31T12:02:00.848Z,15.94
2022-12-31T12:04:29.617Z,16.15
2022-12-31T12:06:58.383Z,16.38
2022-12-31T12:09:32.115Z,16.60
2022-12-31T12:12:06.162Z,16.82
2022-12-31T12:14:38.651Z,16.86
2022-12-31T12:17:11.474Z,16.90
2022-12-31T12:19:47.511Z,16.96
2022-12-31T12:22:24.793Z,17.08
2022-12-31T12:24:56.685Z,17.04
2022-12-31T12:27:32.287Z,16.92
2022-12-31T12:30:11.695Z,16.93
2022-12-31T12:32:40.248Z,16.73
2022-12-31T12:35:16.984Z,16.80
2022-12-31T12:37:45.603Z,16.60
2022-12-31T12:40:33.368Z,16.40
2022-12-31T12:43:04.870Z,16.53
2022-12-31T12:45:51.339Z,16.65
2022-12-31T12:48:31.855Z,16.49
2022-12-31T12:51:02.187Z,16.62
2022-12-31T12:53:46.631Z,16.70
2022-12-31T12:56:31.654Z,16.58
2022-12-31T12:59:53.504Z,16.54
2022-12-31T13:03:02.672Z,16.40
2022-12-31T13:05:53.241Z,16.22
2022-12-31T13:08:54.359Z,16.16
2022-12-31T13:11:39.708Z,16.22
2022-12-31T13:14:26.677Z,16.03
2022-12-31T13:17:05.171Z,16.01
2022-12-31T13:19:50.310Z,16.05
2022-12-31T13:22:31.551Z,16.11
2022-12-31T13:25:08.790Z,16.15
2022-12-31T13:27:42.751Z,16.18
2022-12-31T13:30:21.279Z,16.11
2022-12-31T13:33:01.404Z,15.95
2022-12-31T13:35:40.595Z,15.93
2022-12-31T13:38:19.603Z,15.88
2022-12-31T13:40:57.610Z,15.76
2022-12-31T13:43:39.265Z,15.81
2022-12-31T13:46:22.438Z,15.77
2022-12-31T13:48:57.568Z,15.69
2022-12-31T13:51:41.238Z,15.49
2022-12-31T13:54:28.453Z,15.44
2022-12-31T13:57:05.511Z,15.38
2022-12-31T13:59:41.983Z,15.21
2022-12-31T14:02:33.209Z,15.09
2022-12-31T14:05:13.877Z,15.04
2022-12-31T14:07:51.598Z,14.85
2022-12-31T14:10:31.156Z,14.69
2022-12-31T14:13:18.498Z,14.72
2022-12-31T14:16:04.297Z,14.61
2022-12-31T14:18:42.356Z,14.58
2022-12-31T14:21:23.128Z,14.43
2022-12-31T14:24:01.966Z,14.40
2022-12-31T14:26:36.723Z,14.30
2022-12-31T14:29:23.428Z,14.21
2022-12-31T14:32:42.880Z,13.98
2022-12-31T14:35:39.758Z,13.87
2022-12-31T14:38:22.875Z,13.76
2022-12-31T14:41:11.096Z,13.68
2022-12-31T14:43:57.850Z,13.59
2022-12-31T14:46:35.977Z,13.40
2022-12-31T14:49:34.342Z,13.33
2022-12-31T14:52:23.305Z,13.23
2022-12-31T14:55:12.432Z,13.18
2022-12-31T14:58:17.190Z,13.11
2022-12-31T15:00:39.572Z,13.10
2022-12-31T15:03:26.150Z,12.98
2022-12-31T15:06:02.887Z,12.97
2022-12-31T15:08:54.552Z,12.90
2022-12-31T15:11:46.953Z,12.81
2022-12-31T15:14:57.957Z,12.72
2022-12-31T15:17:43.802Z,12.73
2022-12-31T15:21:02.951Z,12.64
2022-12-31T15:23:39.067Z,12.52
2022-12-31T15:26:20.730Z,12.47
2022-12-31T15:29:00.779Z,12.54
2022-12-31T15:31:30.601Z,12.49
2022-12-31T15:34:02.893Z,12.49
2022-12-31T15:36:35.695Z,12.34
2022-12-31T15:39:27.214Z,12.36
2022-12-31T15:44:53.577Z,12.41
2022-12-31T15:47:32.322Z,12.30
2022-12-31T15:50:06.512Z,12.15
2022-12-31T15:52:44.046Z,12.28
2022-12-31T15:55:28.182Z,12.22
2022-12-31T15:58:05.078Z,12.26
2022-12-31T16:00:58.635Z,12.27
2022-12-31T16:03:31.907Z,12.28
2022-12-31T16:06:05.191Z,12.22
2022-12-31T16:08:36.557Z,12.22
2022-12-31T16:11:09.197Z,12.15
2022-12-31T16:13:43.892Z,12.07
2022-12-31T16:16:23.644Z,12.17
2022-12-31T16:18:54.083Z,12.10
2022-12-31T16:21:32.651Z,12.11
2022-12-31T16:24:04.886Z,12.04
2022-12-31T16:26:48.076Z,12.03
2022-12-31T16:29:20.596Z,11.98
2022-12-31T16:31:54.029Z,12.01
2022-12-31T16:34:26.152Z,12.07
2022-12-31T16:37:02.318Z,12.08
2022-12-31T16:39:34.817Z,12.14
2022-12-31T16:42:20.624Z,12.13
2022-12-31T16:44:50.429Z,12.15
2022-12-31T16:47:23.833Z,12.09
2022-12-31T16:50:02.508Z,12.00
2022-12-31T16:52:38.710Z,11.99
2022-12-31T16:55:12.845Z,12.01
2022-12-31T16:57:47.279Z,12.06
2022-12-31T17:00:20.825Z,11.95
2022-12-31T17:03:04.808Z,12.06
2022-12-31T17:05:35.327Z,12.14
2022-12-31T17:08:24.797Z,12.08
2022-12-31T17:10:54.072Z,11.99
2022-12-31T17:13:30.757Z,12.00
2022-12-31T17:16:01.101Z,11.85
2022-12-31T17:18:40.305Z,11.87
2022-12-31T17:21:12.535Z,11.82
2022-12-31T17:23:43.755Z,11.90
2022-12-31T17:26:16.196Z,11.87
2022-12-31T17:28:50.826Z,11.92
2022-12-31T17:31:36.622Z,11.97
2022-12-31T17:34:23.802Z,11.82
2022-12-31T17:37:19.571Z,11.95
2022-12-31T17:39:51.540Z,11.94
2022-12-31T17:42:32.857Z,11.96
2022-12-31T17:45:08.160Z,11.97
2022-12-31T17:47:40.499Z,11.89
2022-12-31T17:50:23.072Z,11.94
2022-12-31T17:52:53.664Z,11.93
2022-12-31T17:55:22.902Z,11.86
2022-12-31T17:57:55.859Z,11.92
2022-12-31T18:00:28.906Z,11.89
2022-12-31T18:02:57.717Z,11.82
2022-12-31T18:05:28.091Z,11.85
2022-12-31T18:07:56.792Z,11.83
2022-12-31T18:10:28.970Z,11.87
2022-12-31T18:12:58.914Z,11.87
2022-12-31T18:15:29.057Z,11.94
2022-12-31T18:17:59.101Z,11.79
2022-12-31T18:20:30.077Z,11.73
2022-12-31T18:22:59.507Z,11.81
2022-12-31T18:28:11.842Z,11.88
2022-12-31T18:30:45.673Z,11.88
2022-12-31T18:33:22.261Z,11.91
2022-12-31T18:36:09.302Z,11.90
2022-12-31T18:38:39.294Z,11.86
2022-12-31T18:41:19.481Z,11.92
2022-12-31T18:43:49.105Z,11.94
2022-12-31T18:46:24.785Z,11.96
2022-12-31T18:48:53.541Z,11.94
2022-12-31T18:51:31.405Z,11.89
2022-12-31T18:54:02.131Z,11.81
2022-12-31T18:56:31.418Z,11.80
2022-12-31T18:59:02.520Z,11.85
2022-12-31T19:01:35.898Z,11.84
2022-12-31T19:04:13.721Z,11.81
2022-12-31T19:06:44.105Z,11.85
2022-12-31T19:09:43.258Z,11.68
2022-12-31T19:12:02.703Z,11.73
2022-12-31T19:14:31.694Z,11.77
2022-12-31T19:19:29.570Z,11.63
2022-12-31T19:21:58.226Z,11.59
2022-12-31T19:24:28.561Z,11.58
2022-12-31T19:26:57.321Z,11.46
2022-12-31T19:29:29.789Z,11.40
2022-12-31T19:32:01.201Z,11.45
2022-12-31T19:34:31.584Z,11.39
2022-12-31T19:37:00.309Z,11.42
2022-12-31T19:39:28.995Z,11.40
2022-12-31T19:41:59.399Z,11.34
2022-12-31T19:44:28.564Z,11.40
2022-12-31T19:46:57.385Z,11.37
2022-12-31T19:49:25.983Z,11.32
2022-12-31T19:52:00.990Z,11.30
2022-12-31T19:54:30.092Z,11.40
2022-12-31T19:56:59.020Z,11.42
2022-12-31T19:59:28.179Z,11.37
2022-12-31T20:01:57.258Z,11.24
2022-12-31T20:04:26.693Z,11.24
2022-12-31T20:06:55.284Z,11.20
2022-12-31T20:09:25.139Z,11.21
2022-12-31T20:11:53.722Z,11.21
2022-12-31T20:14:22.296Z,11.22
2022-12-31T20:16:52.463Z,11.23
2022-12-31T20:19:21.256Z,11.16
2022-12-31T20:21:49.957Z,11.09
2022-12-31T20:24:18.851Z,11.01
2022-12-31T20:26:48.973Z,10.94
2022-12-31T20:29:17.658Z,10.81
2022-12-31T20:31:46.172Z,10.72
2022-12-31T20:34:14.850Z,10.59
2022-12-31T20:36:43.445Z,10.54
2022-12-31T20:39:12.045Z,10.41
2022-12-31T20:41:40.730Z,10.38
2022-12-31T20:44:10.853Z,10.20
2022-12-31T20:46:39.519Z,10.18
2022-12-31T20:49:08.577Z,10.18
2022-12-31T20:51:37.228Z,10.08
2022-12-31T20:54:10.158Z,9.97
2022-12-31T20:56:42.229Z,9.96
2022-12-31T20:59:12.843Z,9.88
2022-12-31T21:02:19.463Z,9.82
2022-12-31T21:04:30.112Z,9.75
2022-12-31T21:06:58.785Z,9.71
2022-12-31T21:09:27.469Z,9.70
2022-12-31T21:12:14.337Z,9.73
2022-12-31T21:14:45.252Z,9.67
2022-12-31T21:17:13.752Z,9.64
2022-12-31T21:19:42.307Z,9.63
2022-12-31T21:22:11.529Z,9.62
2022-12-31T21:24:40.123Z,9.72
2022-12-31T21:27:09.201Z,9.59
2022-12-31T21:29:55.709Z,9.62
2022-12-31T21:32:27.723Z,9.69
2022-12-31T21:35:39.634Z,9.74
2022-12-31T21:37:58.591Z,9.67
2022-12-31T21:40:29.149Z,9.63
2022-12-31T21:42:58.174Z,9.62
2022-12-31T21:45:26.831Z,9.66
2022-12-31T21:48:18.284Z,9.68
2022-12-31T21:50:48.544Z,9.68
2022-12-31T21:53:23.673Z,9.70
2022-12-31T21:56:14.454Z,9.72
2022-12-31T21:58:45.394Z,9.70
2022-12-31T22:01:37.121Z,9.68
2022-12-31T22:04:28.213Z,9.68
2022-12-31T22:06:56.963Z,9.70
2022-12-31T22:09:25.846Z,9.73
2022-12-31T22:11:54.399Z,9.74
2022-12-31T22:14:22.927Z,9.64
2022-12-31T22:16:51.672Z,9.63
2022-12-31T22:19:21.666Z,9.65
2022-12-31T22:21:50.171Z,9.62
2022-12-31T22:24:18.762Z,9.60
2022-12-31T22:26:47.329Z,9.58
2022-12-31T22:29:16.331Z,9.56
2022-12-31T22:31:44.974Z,9.51
2022-12-31T22:34:13.702Z,9.54
2022-12-31T22:36:43.900Z,9.57
2022-12-31T22:39:43.953Z,9.61
2022-12-31T22:42:06.037Z,9.54
2022-12-31T22:44:34.876Z,9.56
2022-12-31T22:47:04.090Z,9.49
2022-12-31T22:49:33.148Z,9.50
2022-12-31T22:52:07.173Z,9.41
2022-12-31T22:54:37.431Z,9.37
2022-12-31T22:57:06.223Z,9.39
2022-12-31T22:59:34.993Z,9.30
2022-12-31T23:02:03.701Z,9.21
2022-12-31T23:04:32.669Z,9.26
2022-12-31T23:07:03.035Z,9.29
2022-12-31T23:09:49.193Z,9.29
2022-12-31T23:12:17.725Z,9.33
2022-12-31T23:15:03.531Z,9.31
2022-12-31T23:17:50.134Z,9.30
2022-12-31T23:20:40.479Z,9.32
2022-12-31T23:23:16.554Z,9.34
2022-12-31T23:25:48.399Z,9.34
2022-12-31T23:28:20.800Z,9.35
2022-12-31T23:30:51.319Z,9.32
2022-12-31T23:33:22.516Z,9.34
2022-12-31T23:35:51.133Z,9.32
2022-12-31T23:38:21.049Z,9.31
2022-12-31T23:40:49.827Z,9.31
2022-12-31T23:43:23.342Z,9.33
2022-12-31T23:45:52.541Z,9.33
2022-12-31T23:48:21.647Z,9.26
2022-12-31T23:50:53.746Z,9.26
2022-12-31T23:53:25.417Z,9.30
2022-12-31T23:55:54.535Z,9.31
2022-12-31T23:58:23.988Z,9.23
